Time;durP1;ratioP1;P1;durP2;ratioP2;P2;SDS_P1;SDS_P2;PMS_P1;PMS_P2;Temp;Humidity;BMP_temperature;BMP_pressure;BME280_temperature;BME280_humidity;BME280_pressure;Samples;Min_cycle;Max_cycle;Signal;HPM_P1;HPM_P2
2023/05/15 00:00:46;;;;;;;9.85;8.00;;;13.60;99.90;;;;;;5033845;28;20767;-64
2023/05/15 00:03:13;;;;;;;9.57;8.57;;;13.50;99.90;;;;;;5013546;28;20216;-64
2023/05/15 00:05:40;;;;;;;10.10;8.93;;;13.40;99.90;;;;;;5014912;28;21333;-64
2023/05/15 00:08:07;;;;;;;14.25;8.85;;;13.50;99.90;;;;;;5026262;28;20228;-64
2023/05/15 00:10:35;;;;;;;10.95;9.85;;;13.50;99.90;;;;;;5026738;28;20216;-64
2023/05/15 00:13:02;;;;;;;15.75;8.88;;;13.50;99.90;;;;;;5035465;28;20677;-64
2023/05/15 00:15:29;;;;;;;14.25;9.35;;;13.60;99.90;;;;;;5033806;28;20887;-64
2023/05/15 00:17:55;;;;;;;10.02;8.75;;;13.50;99.90;;;;;;5025608;28;20271;-64
2023/05/15 00:20:22;;;;;;;9.43;8.45;;;13.50;99.90;;;;;;5017703;28;20224;-64
2023/05/15 00:22:49;;;;;;;12.10;8.65;;;13.40;99.90;;;;;;5041176;28;20197;-64
2023/05/15 00:25:18;;;;;;;11.35;8.75;;;13.30;99.90;;;;;;5033553;28;20205;-64
2023/05/15 00:27:46;;;;;;;12.68;9.32;;;13.40;99.90;;;;;;5035283;28;20370;-64
2023/05/15 00:30:14;;;;;;;10.65;9.55;;;13.30;99.90;;;;;;5034076;28;20204;-64
2023/05/15 00:32:41;;;;;;;16.40;9.48;;;13.30;99.90;;;;;;5029964;28;20197;-65
2023/05/15 00:35:08;;;;;;;13.57;10.18;;;13.20;99.90;;;;;;5016971;28;20583;-64
2023/05/15 00:37:35;;;;;;;13.68;10.70;;;13.20;99.90;;;;;;5040468;28;20228;-64
2023/05/15 00:40:02;;;;;;;11.68;9.98;;;13.10;99.90;;;;;;5040580;28;20201;-64
2023/05/15 00:42:29;;;;;;;12.25;10.35;;;13.00;99.90;;;;;;5029386;28;20198;-64
2023/05/15 00:45:00;;;;;;;11.60;10.40;;;12.90;99.90;;;;;;5036753;28;20678;-64
2023/05/15 00:47:27;;;;;;;14.02;10.35;;;12.90;99.90;;;;;;5035787;28;20239;-64
2023/05/15 00:49:56;;;;;;;13.27;10.05;;;12.90;99.90;;;;;;4998167;28;22521;-64
2023/05/15 00:52:24;;;;;;;10.90;9.27;;;12.80;99.90;;;;;;5042635;28;20201;-64
2023/05/15 00:54:51;;;;;;;12.77;9.40;;;12.90;99.90;;;;;;5041314;28;20205;-64
2023/05/15 00:57:20;;;;;;;12.05;9.90;;;12.80;99.90;;;;;;5039589;28;20228;-64
2023/05/15 00:59:49;;;;;;;14.43;10.10;;;12.70;99.90;;;;;;5035850;28;23690;-64
2023/05/15 01:02:18;;;;;;;12.05;10.13;;;12.70;99.90;;;;;;5032346;28;20209;-64
2023/05/15 01:04:45;;;;;;;11.10;9.85;;;12.70;99.90;;;;;;5036043;28;20303;-64
2023/05/15 01:07:12;;;;;;;10.27;9.27;;;12.80;99.90;;;;;;5004305;28;20232;-64
2023/05/15 01:09:42;;;;;;;13.48;10.25;;;12.70;99.90;;;;;;5038137;28;20225;-64
2023/05/15 01:12:10;;;;;;;11.25;10.00;;;12.70;99.90;;;;;;5048163;28;20208;-64
2023/05/15 01:14:37;;;;;;;11.48;10.25;;;12.60;99.90;;;;;;5030597;28;20205;-64
2023/05/15 01:17:03;;;;;;;14.60;10.55;;;12.70;99.90;;;;;;5044502;28;21040;-64
2023/05/15 01:19:32;;;;;;;12.82;9.98;;;12.70;99.90;;;;;;5042553;28;20206;-64
2023/05/15 01:22:40;;;;;;;12.98;9.63;;;12.60;99.90;;;;;;5020281;28;20209;-64
2023/05/15 01:25:37;;;;;;;12.07;10.27;;;12.60;99.90;;;;;;5047759;28;20201;-64
2023/05/15 01:28:11;;;;;;;13.68;10.63;;;12.70;99.90;;;;;;5045918;28;20201;-64
2023/05/15 01:30:40;;;;;;;12.45;11.00;;;12.70;99.90;;;;;;5031074;28;20200;-64
2023/05/15 01:33:15;;;;;;;13.35;10.88;;;12.60;99.90;;;;;;5047009;28;20581;-64
2023/05/15 01:35:49;;;;;;;10.95;9.18;;;12.50;99.90;;;;;;5012797;28;25211;-64
2023/05/15 01:38:21;;;;;;;9.90;8.52;;;12.50;99.90;;;;;;5038802;28;20697;-63
2023/05/15 01:40:51;;;;;;;8.35;7.45;;;12.50;99.90;;;;;;5036531;28;20201;-64
2023/05/15 01:43:24;;;;;;;13.05;7.28;;;12.40;99.90;;;;;;5025574;28;20209;-64
2023/05/15 01:45:51;;;;;;;11.95;8.18;;;12.30;99.90;;;;;;5027282;28;20814;-64
2023/05/15 01:48:19;;;;;;;8.35;7.30;;;12.30;99.90;;;;;;5034136;28;20206;-64
2023/05/15 01:50:49;;;;;;;12.02;8.43;;;12.20;99.90;;;;;;5036218;28;20208;-64
2023/05/15 01:53:18;;;;;;;11.45;9.23;;;12.10;99.90;;;;;;5019709;28;20337;-64
2023/05/15 01:55:47;;;;;;;12.38;8.70;;;12.00;99.90;;;;;;5045196;28;20193;-64
2023/05/15 01:58:15;;;;;;;8.93;8.02;;;12.00;99.90;;;;;;5030392;28;20235;-64
2023/05/15 02:00:44;;;;;;;8.95;8.05;;;12.00;99.90;;;;;;5033880;28;20209;-64
2023/05/15 02:03:12;;;;;;;10.82;9.05;;;12.00;99.90;;;;;;5031748;28;20212;-64
2023/05/15 02:05:39;;;;;;;10.05;8.43;;;12.00;99.90;;;;;;5045037;28;20198;-64
2023/05/15 02:08:06;;;;;;;10.23;8.48;;;12.00;99.90;;;;;;5012216;28;20232;-64
2023/05/15 02:10:34;;;;;;;10.55;8.40;;;12.00;99.90;;;;;;5043658;28;20193;-64
2023/05/15 02:13:01;;;;;;;10.60;9.23;;;11.90;99.90;;;;;;5030914;28;20565;-64
2023/05/15 02:15:29;;;;;;;10.10;9.07;;;11.90;99.90;;;;;;5043764;28;20654;-64
2023/05/15 02:17:57;;;;;;;10.63;9.10;;;11.80;99.90;;;;;;5025342;28;20232;-64
2023/05/15 02:20:24;;;;;;;12.45;8.98;;;11.80;99.90;;;;;;5043895;28;20197;-64
2023/05/15 02:22:51;;;;;;;10.55;8.95;;;11.80;99.90;;;;;;5010493;28;20220;-64
2023/05/15 02:25:18;;;;;;;11.70;9.07;;;11.90;99.90;;;;;;5044231;28;20201;-64
2023/05/15 02:27:50;;;;;;;10.68;9.18;;;11.90;99.90;;;;;;5028648;28;20209;-64
2023/05/15 02:30:31;;;;;;;11.52;10.13;;;11.90;99.90;;;;;;5041328;28;20200;-64
2023/05/15 02:33:07;;;;;;;10.52;9.35;;;11.90;99.90;;;;;;5035522;28;20196;-64
2023/05/15 02:35:41;;;;;;;11.68;8.90;;;11.90;99.90;;;;;;5035676;28;20205;-63
2023/05/15 02:38:15;;;;;;;13.25;9.35;;;11.80;99.90;;;;;;5038581;28;20224;-64
2023/05/15 02:40:44;;;;;;;11.48;7.72;;;11.80;99.90;;;;;;5016451;28;20204;-64
2023/05/15 02:43:11;;;;;;;9.63;8.18;;;11.70;99.90;;;;;;5036776;28;20203;-64
2023/05/15 02:45:40;;;;;;;8.38;7.32;;;11.70;99.90;;;;;;5030399;28;22611;-64
2023/05/15 02:48:09;;;;;;;7.88;6.95;;;11.60;99.90;;;;;;5024963;28;20208;-64
2023/05/15 02:50:36;;;;;;;11.80;8.77;;;11.50;99.90;;;;;;5031914;28;20207;-64
2023/05/15 02:53:03;;;;;;;9.95;8.57;;;11.50;99.90;;;;;;5035450;28;20201;-64
2023/05/15 02:55:30;;;;;;;9.80;8.80;;;11.40;99.90;;;;;;5012642;28;20217;-64
2023/05/15 02:57:57;;;;;;;11.80;8.68;;;11.40;99.90;;;;;;5038702;28;20507;-63
2023/05/15 03:00:24;;;;;;;11.98;8.40;;;11.40;99.90;;;;;;5022620;28;20209;-64
2023/05/15 03:02:51;;;;;;;14.25;11.23;;;11.40;99.90;;;;;;5035781;28;20205;-64
2023/05/15 03:05:19;;;;;;;12.70;10.15;;;11.40;99.90;;;;;;5019729;28;20201;-64
2023/05/15 03:07:46;;;;;;;11.27;10.07;;;11.40;99.90;;;;;;5032833;28;20229;-64
2023/05/15 03:10:12;;;;;;;11.15;9.20;;;11.40;99.90;;;;;;5035201;28;20224;-64
2023/05/15 03:12:39;;;;;;;12.93;9.90;;;11.20;99.90;;;;;;5012147;28;20212;-64
2023/05/15 03:15:07;;;;;;;11.52;9.50;;;11.20;99.90;;;;;;5040709;28;20197;-64
2023/05/15 03:17:34;;;;;;;15.25;9.73;;;11.10;99.90;;;;;;5038390;28;20213;-64
2023/05/15 03:20:00;;;;;;;14.32;9.45;;;11.00;99.90;;;;;;5031669;28;20205;-64
2023/05/15 03:22:29;;;;;;;16.35;8.82;;;10.80;99.90;;;;;;5032196;28;20205;-64
2023/05/15 03:24:55;;;;;;;13.23;10.52;;;10.80;99.90;;;;;;5039294;28;20205;-64
2023/05/15 03:27:22;;;;;;;9.68;8.60;;;10.70;99.90;;;;;;5014542;28;20212;-65
2023/05/15 03:29:49;;;;;;;15.82;12.50;;;10.60;99.90;;;;;;5038563;28;20200;-63
2023/05/15 03:32:16;;;;;;;18.35;13.13;;;10.90;99.90;;;;;;5042059;28;20197;-64
2023/05/15 03:34:43;;;;;;;19.33;12.82;;;11.00;99.90;;;;;;5032528;28;20205;-64
2023/05/15 03:37:10;;;;;;;23.95;17.23;;;11.00;99.90;;;;;;5026948;28;20220;-64
2023/05/15 03:39:38;;;;;;;34.50;22.73;;;11.00;99.90;;;;;;5043513;28;20266;-64
2023/05/15 03:42:06;;;;;;;33.47;23.70;;;11.10;99.90;;;;;;5045344;28;20196;-64
2023/05/15 03:44:33;;;;;;;35.92;23.90;;;11.30;99.90;;;;;;4996424;28;20204;-63
2023/05/15 03:47:00;;;;;;;36.13;24.25;;;11.30;99.90;;;;;;5035148;28;20239;-64
2023/05/15 03:49:26;;;;;;;37.95;26.13;;;11.30;99.90;;;;;;5030548;28;20200;-63
2023/05/15 03:51:53;;;;;;;39.28;26.65;;;11.40;99.90;;;;;;5012918;28;20216;-64
2023/05/15 03:54:20;;;;;;;37.90;26.65;;;11.60;99.90;;;;;;5038820;28;20563;-63
2023/05/15 03:56:48;;;;;;;40.47;27.73;;;11.60;99.90;;;;;;5014610;28;20205;-63
2023/05/15 03:59:15;;;;;;;40.88;26.52;;;11.60;99.90;;;;;;5001343;28;21032;-64
2023/05/15 04:01:42;;;;;;;38.25;27.13;;;11.60;99.90;;;;;;5005317;28;20217;-64
2023/05/15 04:04:09;;;;;;;43.83;26.67;;;11.60;99.90;;;;;;5025475;28;20251;-63
2023/05/15 04:06:36;;;;;;;34.03;26.67;;;11.60;99.90;;;;;;4997399;28;20228;-63
2023/05/15 04:09:03;;;;;;;37.45;25.80;;;11.60;99.90;;;;;;5029253;28;20197;-63
2023/05/15 04:11:30;;;;;;;42.05;26.33;;;11.60;99.90;;;;;;5014485;28;20774;-63
2023/05/15 04:13:58;;;;;;;38.17;27.02;;;11.60;99.90;;;;;;4999974;28;20559;-64
2023/05/15 04:16:25;;;;;;;35.75;25.77;;;11.60;99.90;;;;;;5030398;28;20201;-63
2023/05/15 04:18:52;;;;;;;37.05;26.30;;;11.60;99.90;;;;;;5015640;28;20232;-63
2023/05/15 04:21:19;;;;;;;39.88;26.13;;;11.60;99.90;;;;;;5021839;28;20693;-63
2023/05/15 04:23:45;;;;;;;39.45;27.08;;;11.60;99.90;;;;;;5008839;28;20212;-63
2023/05/15 04:26:12;;;;;;;35.83;25.63;;;11.70;99.90;;;;;;5023228;28;20201;-63
2023/05/15 04:28:39;;;;;;;34.55;24.52;;;11.70;99.90;;;;;;5035351;28;20200;-63
2023/05/15 04:31:07;;;;;;;38.72;26.20;;;11.80;99.90;;;;;;4990237;28;20247;-63
2023/05/15 04:33:34;;;;;;;37.33;24.73;;;11.80;99.90;;;;;;5026741;28;20217;-63
2023/05/15 04:36:02;;;;;;;36.75;25.38;;;11.80;99.90;;;;;;5020521;28;20218;-64
2023/05/15 04:38:29;;;;;;;38.92;25.10;;;11.80;99.90;;;;;;5030103;28;20224;-63
2023/05/15 04:40:55;;;;;;;37.22;25.00;;;11.80;99.90;;;;;;5026495;28;20737;-64
2023/05/15 04:43:22;;;;;;;34.08;24.85;;;11.80;99.90;;;;;;5028089;28;21067;-63
2023/05/15 04:45:49;;;;;;;42.13;26.58;;;11.90;99.90;;;;;;5003542;28;20214;-63
2023/05/15 04:48:18;;;;;;;34.47;23.40;;;11.90;99.90;;;;;;5024372;28;20235;-63
2023/05/15 04:50:45;;;;;;;38.45;23.35;;;11.90;99.90;;;;;;5038297;28;20205;-63
2023/05/15 04:53:11;;;;;;;38.80;23.83;;;12.00;99.90;;;;;;5025010;28;20201;-64
2023/05/15 04:55:38;;;;;;;35.97;24.02;;;12.00;99.90;;;;;;5039480;28;20221;-63
2023/05/15 04:58:05;;;;;;;36.20;23.73;;;12.00;99.90;;;;;;5019546;28;20212;-63
2023/05/15 05:00:32;;;;;;;36.47;24.30;;;12.10;99.90;;;;;;5041258;28;20277;-63
2023/05/15 05:02:59;;;;;;;37.00;23.73;;;12.10;99.90;;;;;;5003623;28;20227;-63
2023/05/15 05:05:27;;;;;;;32.72;22.63;;;12.00;99.90;;;;;;5021049;28;20243;-63
2023/05/15 05:07:53;;;;;;;41.35;23.02;;;12.10;99.90;;;;;;5030944;28;20224;-63
2023/05/15 05:10:20;;;;;;;35.50;23.58;;;12.30;99.90;;;;;;5038133;28;20201;-63
2023/05/15 05:12:47;;;;;;;33.15;22.52;;;12.30;99.90;;;;;;5037534;28;20236;-63
2023/05/15 05:15:14;;;;;;;37.05;23.52;;;12.20;99.90;;;;;;5041326;28;20267;-63
2023/05/15 05:17:41;;;;;;;35.80;23.25;;;12.20;99.90;;;;;;5008141;28;20208;-63
2023/05/15 05:20:09;;;;;;;32.53;22.40;;;12.20;99.90;;;;;;5033295;28;20224;-63
2023/05/15 05:22:38;;;;;;;37.45;20.10;;;12.10;99.90;;;;;;5027330;28;20205;-63
2023/05/15 05:25:06;;;;;;;35.78;19.38;;;12.00;99.90;;;;;;5038536;28;20241;-63
2023/05/15 05:27:33;;;;;;;31.42;18.65;;;11.90;99.90;;;;;;5029932;28;20212;-63
2023/05/15 05:30:00;;;;;;;31.40;19.15;;;11.80;99.90;;;;;;5033721;28;20247;-63
2023/05/15 05:32:27;;;;;;;32.65;19.58;;;11.80;99.90;;;;;;5008521;28;20839;-63
2023/05/15 05:34:54;;;;;;;35.70;20.55;;;11.80;99.90;;;;;;5026836;28;20205;-63
2023/05/15 05:37:20;;;;;;;35.08;20.88;;;11.80;99.90;;;;;;5027105;28;20220;-64
2023/05/15 05:39:49;;;;;;;32.03;19.77;;;11.90;99.90;;;;;;5032188;28;20228;-63
2023/05/15 05:42:15;;;;;;;35.00;20.90;;;11.90;99.90;;;;;;5046510;28;20208;-64
2023/05/15 05:44:42;;;;;;;35.58;19.83;;;11.90;99.90;;;;;;5033074;28;20208;-64
2023/05/15 05:47:09;;;;;;;34.15;19.70;;;11.90;99.90;;;;;;5013930;28;20239;-64
2023/05/15 05:49:36;;;;;;;33.15;20.50;;;11.90;99.90;;;;;;5046826;28;20197;-64
2023/05/15 05:52:08;;;;;;;36.58;20.98;;;12.00;99.90;;;;;;5032651;28;20208;-64
2023/05/15 05:54:34;;;;;;;34.08;19.77;;;12.10;99.90;;;;;;5049163;28;20669;-64
2023/05/15 05:57:03;;;;;;;32.58;20.15;;;12.30;99.90;;;;;;5045984;28;20192;-64
2023/05/15 05:59:30;;;;;;;34.47;19.92;;;12.00;99.90;;;;;;5038156;28;20235;-64
2023/05/15 06:01:57;;;;;;;35.67;19.70;;;12.00;99.90;;;;;;5022210;28;21940;-64
2023/05/15 06:04:24;;;;;;;34.05;19.25;;;12.10;99.90;;;;;;5042786;28;20646;-64
2023/05/15 06:06:50;;;;;;;26.55;17.65;;;11.90;99.90;;;;;;5005029;28;21127;-64
2023/05/15 06:09:17;;;;;;;31.25;19.27;;;11.90;99.90;;;;;;5033404;28;20197;-63
2023/05/15 06:11:45;;;;;;;32.45;18.30;;;11.80;99.90;;;;;;5032066;28;21101;-63
2023/05/15 06:14:13;;;;;;;31.05;18.02;;;11.90;99.90;;;;;;5039592;28;20291;-63
2023/05/15 06:16:40;;;;;;;32.78;18.48;;;11.90;99.90;;;;;;5030154;28;20237;-63
2023/05/15 06:19:07;;;;;;;38.45;19.60;;;12.00;99.90;;;;;;5023613;28;20228;-63
2023/05/15 06:21:33;;;;;;;30.92;18.35;;;12.00;99.90;;;;;;5035638;28;20192;-63
2023/05/15 06:24:00;;;;;;;33.90;18.95;;;12.00;99.90;;;;;;5048855;28;20211;-63
2023/05/15 06:26:27;;;;;;;32.28;19.63;;;12.10;99.90;;;;;;5032011;28;20226;-64
2023/05/15 06:28:54;;;;;;;29.35;18.27;;;12.10;99.90;;;;;;5037229;28;20304;-64
2023/05/15 06:31:22;;;;;;;26.65;16.42;;;12.20;99.90;;;;;;5037157;28;20208;-64
2023/05/15 06:33:49;;;;;;;30.38;16.67;;;12.10;99.90;;;;;;5012270;28;20236;-63
2023/05/15 06:36:16;;;;;;;26.52;16.42;;;12.10;99.90;;;;;;5041266;28;20225;-64
2023/05/15 06:38:43;;;;;;;32.90;17.83;;;12.10;99.90;;;;;;5024164;28;20225;-64
2023/05/15 06:41:10;;;;;;;25.58;16.25;;;12.20;99.90;;;;;;5005762;28;22439;-64
2023/05/15 06:43:36;;;;;;;29.15;17.60;;;12.20;99.90;;;;;;5023726;28;20223;-63
2023/05/15 06:46:03;;;;;;;29.83;15.70;;;12.20;99.90;;;;;;5028937;28;20224;-63
2023/05/15 06:48:32;;;;;;;27.42;15.68;;;12.30;99.90;;;;;;4991764;28;20248;-63
2023/05/15 06:50:58;;;;;;;29.67;17.23;;;12.30;99.90;;;;;;5031699;28;20670;-63
2023/05/15 06:53:25;;;;;;;30.67;17.90;;;12.30;99.90;;;;;;5028066;28;20200;-63
2023/05/15 06:55:52;;;;;;;28.13;17.63;;;12.40;99.90;;;;;;5028350;28;20204;-64
2023/05/15 06:58:19;;;;;;;32.35;18.92;;;12.50;99.90;;;;;;5039707;28;20215;-64
2023/05/15 07:00:46;;;;;;;34.35;18.20;;;12.50;99.90;;;;;;5024165;28;20202;-65
2023/05/15 07:03:14;;;;;;;28.20;17.58;;;12.60;99.90;;;;;;5039593;28;20208;-63
2023/05/15 07:05:42;;;;;;;29.58;18.23;;;12.60;99.90;;;;;;5014245;28;20319;-63
2023/05/15 07:08:09;;;;;;;32.60;18.90;;;12.60;99.90;;;;;;5031864;28;20200;-63
2023/05/15 07:10:36;;;;;;;28.08;18.40;;;12.70;99.90;;;;;;5042086;28;20562;-63
2023/05/15 07:13:02;;;;;;;28.13;18.27;;;12.70;99.90;;;;;;5032096;28;20204;-63
2023/05/15 07:15:29;;;;;;;32.63;17.95;;;12.80;99.90;;;;;;5034213;28;20201;-63
2023/05/15 07:17:56;;;;;;;29.00;17.95;;;12.80;99.90;;;;;;5031528;28;20229;-64
2023/05/15 07:20:23;;;;;;;26.58;16.92;;;12.80;99.90;;;;;;5012797;28;20280;-63
2023/05/15 07:22:51;;;;;;;29.60;17.50;;;12.80;99.90;;;;;;5029987;28;20220;-64
2023/05/15 07:25:18;;;;;;;29.15;18.35;;;12.90;99.90;;;;;;5045596;28;20200;-64
2023/05/15 07:27:45;;;;;;;30.13;17.27;;;13.00;99.90;;;;;;5037078;28;20197;-64
2023/05/15 07:30:12;;;;;;;29.60;17.17;;;13.00;99.90;;;;;;5019353;28;20208;-63
2023/05/15 07:32:40;;;;;;;29.42;18.15;;;13.10;99.90;;;;;;5029062;28;20206;-64
2023/05/15 07:35:07;;;;;;;28.75;17.38;;;13.20;99.90;;;;;;5009543;28;20397;-64
2023/05/15 07:37:34;;;;;;;27.27;16.48;;;13.20;99.90;;;;;;5043245;28;20200;-64
2023/05/15 07:40:02;;;;;;;29.45;17.55;;;13.20;99.90;;;;;;5026441;28;20221;-64
2023/05/15 07:42:29;;;;;;;27.80;17.85;;;13.20;99.90;;;;;;5043346;28;20205;-64
2023/05/15 07:44:56;;;;;;;29.98;17.50;;;13.20;99.90;;;;;;5026609;28;20812;-64
2023/05/15 07:47:22;;;;;;;28.30;18.67;;;13.30;99.90;;;;;;5010286;28;20469;-64
2023/05/15 07:49:49;;;;;;;25.63;16.13;;;13.30;99.90;;;;;;5018969;28;20201;-64
2023/05/15 07:52:16;;;;;;;26.88;17.38;;;13.50;99.90;;;;;;4997671;28;20208;-64
2023/05/15 07:54:43;;;;;;;27.30;17.88;;;13.60;99.90;;;;;;5022633;28;20197;-64
2023/05/15 07:57:11;;;;;;;23.98;17.48;;;13.70;99.90;;;;;;5042950;28;20674;-64
2023/05/15 07:59:38;;;;;;;25.00;16.83;;;13.80;99.90;;;;;;5026305;28;20216;-65
2023/05/15 08:02:05;;;;;;;25.55;16.92;;;14.00;99.90;;;;;;5032089;28;20958;-64
2023/05/15 08:04:32;;;;;;;25.20;15.93;;;14.00;99.90;;;;;;5027619;28;20207;-64
2023/05/15 08:06:58;;;;;;;24.48;16.55;;;14.10;99.90;;;;;;5006982;28;20208;-65
2023/05/15 08:09:25;;;;;;;25.95;16.00;;;14.10;99.90;;;;;;5031862;28;20204;-64
2023/05/15 08:11:55;;;;;;;24.48;16.80;;;14.10;99.90;;;;;;5025827;28;20223;-64
2023/05/15 08:14:23;;;;;;;26.17;16.02;;;14.20;99.90;;;;;;5029395;28;20197;-64
2023/05/15 08:16:50;;;;;;;25.77;16.58;;;14.30;99.90;;;;;;5028020;28;20201;-64
2023/05/15 08:19:18;;;;;;;23.45;16.23;;;14.50;99.90;;;;;;5032243;28;20221;-64
2023/05/15 08:21:44;;;;;;;22.63;15.65;;;14.50;99.90;;;;;;5012062;28;20219;-64
2023/05/15 08:24:11;;;;;;;23.92;16.20;;;14.50;99.90;;;;;;5036456;28;20213;-64
2023/05/15 08:26:38;;;;;;;24.33;15.90;;;14.60;99.90;;;;;;5035358;28;20209;-65
2023/05/15 08:29:05;;;;;;;24.15;15.35;;;14.60;99.90;;;;;;5046550;28;20207;-64
2023/05/15 08:31:33;;;;;;;25.35;16.38;;;14.60;99.90;;;;;;5037695;28;20200;-64
2023/05/15 08:33:59;;;;;;;25.58;17.92;;;14.60;99.90;;;;;;5032173;28;20662;-64
2023/05/15 08:36:26;;;;;;;27.55;17.10;;;14.70;99.90;;;;;;5030861;28;20201;-64
2023/05/15 08:38:53;;;;;;;25.50;17.70;;;14.60;99.90;;;;;;5003585;28;20209;-64
2023/05/15 08:41:30;;;;;;;25.30;17.58;;;14.70;99.90;;;;;;5034233;28;20212;-64
2023/05/15 08:43:58;;;;;;;24.77;17.17;;;14.60;99.90;;;;;;5041142;28;20193;-65
2023/05/15 08:46:25;;;;;;;24.30;17.45;;;14.50;99.90;;;;;;5033077;28;20728;-64
2023/05/15 08:48:54;;;;;;;26.08;17.13;;;14.60;99.90;;;;;;5035491;28;20871;-64
2023/05/15 08:51:22;;;;;;;24.60;16.83;;;14.50;99.90;;;;;;5033472;28;20224;-64
2023/05/15 08:53:49;;;;;;;29.13;19.90;;;14.60;99.90;;;;;;5013017;28;20219;-63
2023/05/15 08:56:18;;;;;;;33.17;19.35;;;14.60;99.90;;;;;;5026071;28;20197;-64
2023/05/15 08:58:45;;;;;;;27.33;19.15;;;14.70;99.90;;;;;;5042491;28;20208;-65
2023/05/15 09:01:13;;;;;;;27.08;19.10;;;14.60;99.90;;;;;;5029680;28;20225;-64
2023/05/15 09:03:41;;;;;;;26.42;18.80;;;14.60;99.90;;;;;;5039113;28;20227;-64
2023/05/15 09:06:10;;;;;;;26.42;19.65;;;14.70;99.90;;;;;;5021355;28;20208;-64
2023/05/15 09:08:38;;;;;;;26.52;18.30;;;14.80;99.90;;;;;;5016699;28;20212;-64
2023/05/15 09:11:06;;;;;;;26.98;18.50;;;14.70;99.90;;;;;;5024825;28;20200;-64
2023/05/15 09:13:33;;;;;;;25.25;19.10;;;14.80;99.90;;;;;;5050058;28;20681;-64
2023/05/15 09:16:00;;;;;;;25.73;17.95;;;14.80;99.90;;;;;;5026436;28;20209;-64
2023/05/15 09:18:28;;;;;;;27.88;18.88;;;14.90;99.90;;;;;;5045111;28;20197;-64
2023/05/15 09:20:55;;;;;;;23.27;16.85;;;14.90;99.90;;;;;;5029014;28;20228;-64
2023/05/15 09:23:25;;;;;;;25.65;18.33;;;15.00;99.90;;;;;;5049242;28;20205;-63
2023/05/15 09:25:55;;;;;;;23.73;17.30;;;15.00;99.90;;;;;;5012931;28;20248;-64
2023/05/15 09:28:27;;;;;;;25.77;17.52;;;15.00;99.90;;;;;;5033289;28;20304;-64
2023/05/15 09:30:59;;;;;;;23.92;16.65;;;15.20;99.90;;;;;;5028501;28;20224;-64
2023/05/15 09:33:32;;;;;;;29.02;17.20;;;15.10;99.90;;;;;;5045994;28;20262;-64
2023/05/15 09:35:59;;;;;;;24.23;16.38;;;15.10;99.90;;;;;;5029495;28;20229;-64
2023/05/15 09:38:29;;;;;;;23.52;15.93;;;15.10;99.90;;;;;;5044795;28;20213;-64
2023/05/15 09:41:04;;;;;;;27.25;16.50;;;15.10;99.90;;;;;;5007221;28;20414;-64
2023/05/15 09:43:34;;;;;;;24.25;16.75;;;15.20;99.90;;;;;;5032812;28;20539;-64
2023/05/15 09:46:01;;;;;;;25.92;16.85;;;15.30;99.90;;;;;;5036105;28;20609;-64
2023/05/15 09:48:29;;;;;;;26.88;17.25;;;15.30;99.90;;;;;;5050427;28;20826;-64
2023/05/15 09:50:56;;;;;;;22.10;16.42;;;15.40;99.90;;;;;;5034193;28;20213;-64
2023/05/15 09:53:23;;;;;;;23.00;16.25;;;15.50;99.90;;;;;;5011270;28;20760;-64
2023/05/15 09:55:53;;;;;;;20.33;15.27;;;15.60;99.90;;;;;;5012440;28;20650;-64
2023/05/15 09:58:20;;;;;;;22.38;15.20;;;15.70;99.90;;;;;;5030525;28;20226;-64
2023/05/15 10:00:47;;;;;;;21.90;16.73;;;15.90;99.90;;;;;;5023691;28;20248;-64
2023/05/15 10:03:15;;;;;;;22.75;14.60;;;15.90;99.90;;;;;;5021689;28;20224;-64
2023/05/15 10:05:42;;;;;;;23.05;15.52;;;15.90;99.90;;;;;;5042762;28;20224;-64
2023/05/15 10:08:09;;;;;;;25.13;14.65;;;15.90;99.90;;;;;;5033656;28;20193;-64
2023/05/15 10:10:36;;;;;;;21.13;15.10;;;16.00;99.90;;;;;;5013988;28;20201;-64
2023/05/15 10:13:04;;;;;;;25.40;15.45;;;16.10;99.90;;;;;;5035927;28;20205;-64
2023/05/15 10:15:32;;;;;;;20.40;15.65;;;16.10;99.90;;;;;;5033673;28;20201;-64
2023/05/15 10:18:00;;;;;;;25.83;17.23;;;16.30;99.90;;;;;;5033933;28;20478;-64
2023/05/15 10:20:27;;;;;;;22.33;16.00;;;16.30;99.90;;;;;;5049327;28;20225;-63
2023/05/15 10:22:56;;;;;;;21.85;16.90;;;16.50;99.90;;;;;;5031965;28;20212;-64
2023/05/15 10:25:35;;;;;;;21.65;16.92;;;16.40;99.90;;;;;;5013885;28;20247;-63
2023/05/15 10:28:05;;;;;;;18.90;15.25;;;16.40;99.90;;;;;;5032238;28;20801;-64
2023/05/15 10:30:32;;;;;;;19.90;15.63;;;16.30;99.90;;;;;;5034835;28;21062;-64
2023/05/15 10:33:01;;;;;;;20.13;15.85;;;16.20;99.90;;;;;;5031695;28;20665;-63
2023/05/15 10:35:29;;;;;;;22.92;15.50;;;16.30;99.90;;;;;;5031915;28;20215;-64
2023/05/15 10:37:56;;;;;;;22.23;16.25;;;16.30;99.90;;;;;;5043854;28;20189;-64
2023/05/15 10:40:24;;;;;;;20.38;14.75;;;16.40;99.90;;;;;;5016826;28;20232;-64
2023/05/15 10:42:54;;;;;;;17.20;13.82;;;16.50;99.90;;;;;;5030537;28;20547;-64
2023/05/15 10:45:23;;;;;;;21.38;14.07;;;16.50;99.90;;;;;;5042419;28;20196;-64
2023/05/15 10:47:50;;;;;;;17.65;14.02;;;16.40;99.90;;;;;;5008008;28;20689;-64
2023/05/15 10:50:18;;;;;;;20.52;13.80;;;16.60;99.90;;;;;;5043189;28;20216;-64
2023/05/15 10:52:45;;;;;;;15.50;12.35;;;16.60;99.90;;;;;;5029964;28;20197;-64
2023/05/15 10:55:16;;;;;;;17.05;12.95;;;16.60;99.90;;;;;;5030708;28;20227;-63
2023/05/15 10:57:45;;;;;;;19.67;13.77;;;16.60;99.90;;;;;;5014576;28;20315;-64
2023/05/15 11:00:27;;;;;;;16.50;11.40;;;16.80;99.90;;;;;;5022351;28;20226;-64
2023/05/15 11:02:55;;;;;;;15.77;11.63;;;16.90;99.90;;;;;;5015863;28;20236;-64
2023/05/15 11:05:23;;;;;;;18.15;13.32;;;16.90;99.90;;;;;;5032163;28;20235;-63
2023/05/15 11:08:27;;;;;;;18.25;12.38;;;16.80;99.90;;;;;;5021079;28;20355;-64
2023/05/15 11:10:55;;;;;;;19.33;13.63;;;16.90;99.90;;;;;;5003107;28;20224;-64
2023/05/15 11:13:22;;;;;;;15.10;12.65;;;16.90;99.90;;;;;;5000782;28;27087;-63
2023/05/15 11:15:51;;;;;;;18.15;14.07;;;17.00;99.90;;;;;;4998363;28;20824;-64
2023/05/15 11:18:19;;;;;;;16.63;13.52;;;17.10;99.90;;;;;;5004924;28;20276;-64
2023/05/15 11:21:05;;;;;;;16.30;12.70;;;17.20;99.90;;;;;;5008903;28;20225;-63
2023/05/15 11:23:38;;;;;;;14.75;12.35;;;17.10;99.90;;;;;;5013668;28;23475;-63
2023/05/15 11:26:05;;;;;;;17.73;13.05;;;17.20;99.90;;;;;;5017939;28;20198;-64
2023/05/15 11:28:41;;;;;;;14.85;12.05;;;17.10;99.90;;;;;;5013744;28;22445;-63
2023/05/15 11:31:10;;;;;;;15.50;12.73;;;17.10;99.90;;;;;;5027773;28;20255;-64
2023/05/15 11:33:39;;;;;;;18.65;14.13;;;17.10;99.90;;;;;;5003666;28;20256;-64
2023/05/15 11:36:06;;;;;;;17.30;12.55;;;17.10;99.90;;;;;;5030819;28;22129;-64
2023/05/15 11:38:38;;;;;;;16.63;11.77;;;17.20;99.90;;;;;;5002221;28;20223;-64
2023/05/15 11:41:18;;;;;;;16.17;12.27;;;17.10;99.90;;;;;;5015787;28;20695;-64
2023/05/15 11:43:45;;;;;;;16.70;11.98;;;17.20;99.90;;;;;;4998034;28;20271;-64
2023/05/15 11:46:15;;;;;;;15.02;11.70;;;17.20;99.90;;;;;;5029110;28;20233;-65
2023/05/15 11:48:44;;;;;;;18.58;12.15;;;17.20;99.90;;;;;;5013040;28;20221;-64
2023/05/15 11:51:20;;;;;;;17.92;12.18;;;17.20;99.90;;;;;;5022282;28;20222;-65
2023/05/15 11:53:49;;;;;;;17.27;11.35;;;17.20;99.90;;;;;;5009442;28;20204;-64
2023/05/15 11:56:21;;;;;;;11.88;10.20;;;17.30;99.90;;;;;;5023998;28;20264;-64
2023/05/15 11:58:49;;;;;;;16.52;11.23;;;17.40;99.90;;;;;;5011253;28;20224;-65
2023/05/15 12:01:17;;;;;;;19.48;11.90;;;17.50;99.90;;;;;;5032992;28;20259;-64
2023/05/15 12:03:47;;;;;;;14.05;11.73;;;17.50;99.90;;;;;;5021980;28;20209;-64
2023/05/15 12:06:14;;;;;;;16.60;11.90;;;17.50;99.90;;;;;;5007814;28;20897;-64
2023/05/15 12:08:41;;;;;;;14.45;11.23;;;17.50;99.90;;;;;;5020047;28;20224;-64
2023/05/15 12:11:08;;;;;;;15.73;11.45;;;17.60;99.90;;;;;;5025895;28;20220;-64
2023/05/15 12:13:35;;;;;;;13.88;11.35;;;17.50;99.90;;;;;;4989008;28;20220;-65
2023/05/15 12:16:03;;;;;;;14.32;11.70;;;17.40;99.90;;;;;;5030141;28;20670;-64
2023/05/15 12:18:32;;;;;;;16.15;10.95;;;17.50;99.90;;;;;;5027970;28;20220;-65
2023/05/15 12:20:59;;;;;;;14.13;10.25;;;17.40;99.90;;;;;;5007445;28;20800;-64
2023/05/15 12:23:27;;;;;;;13.65;10.68;;;17.40;99.90;;;;;;5024761;28;20425;-65
2023/05/15 12:26:03;;;;;;;11.77;10.57;;;17.30;99.90;;;;;;5020891;28;20221;-64
2023/05/15 12:28:34;;;;;;;15.15;11.18;;;17.20;99.90;;;;;;4994376;28;20220;-64
2023/05/15 12:31:01;;;;;;;12.90;10.85;;;17.30;99.90;;;;;;5013245;28;21429;-64
2023/05/15 12:33:28;;;;;;;14.32;10.45;;;17.20;99.90;;;;;;5010555;28;20315;-64